Time;durP1;ratioP1;P1;durP2;ratioP2;P2;SDS_P1;SDS_P2;PMS_P1;PMS_P2;Temp;Humidity;BMP_temperature;BMP_pressure;BME280_temperature;BME280_humidity;BME280_pressure;Samples;Min_cycle;Max_cycle;Signal;HPM_P1;HPM_P2
2022/03/24 00:00:31;;;;;;;47.90;25.60;;;10.60;21.00;;;;;;4993236;28;20218;-68
2022/03/24 00:02:57;;;;;;;47.73;25.33;;;10.70;21.40;;;;;;4993364;28;20274;-68
2022/03/24 00:05:22;;;;;;;44.53;24.80;;;10.40;21.70;;;;;;4993361;28;20445;-70
2022/03/24 00:07:48;;;;;;;54.03;25.83;;;10.50;21.50;;;;;;4993159;28;20250;-69
2022/03/24 00:10:14;;;;;;;58.73;25.27;;;10.40;21.80;;;;;;4992011;28;20211;-68
2022/03/24 00:12:40;;;;;;;51.53;24.63;;;10.20;22.70;;;;;;4992941;28;20214;-69
2022/03/24 00:15:06;;;;;;;66.63;27.07;;;10.20;22.00;;;;;;4993108;28;20557;-70
2022/03/24 00:17:33;;;;;;;46.00;25.25;;;10.20;22.70;;;;;;4992796;28;20689;-68
2022/03/24 00:19:58;;;;;;;52.75;28.30;;;9.90;24.00;;;;;;4992066;28;20356;-68
2022/03/24 00:22:24;;;;;;;53.23;25.80;;;9.80;24.20;;;;;;4998080;28;20197;-68
2022/03/24 00:24:50;;;;;;;48.45;25.33;;;9.60;24.20;;;;;;5012693;28;20408;-68
2022/03/24 00:27:16;;;;;;;53.10;25.57;;;9.40;24.20;;;;;;5007235;28;20183;-68
2022/03/24 00:29:42;;;;;;;43.37;25.40;;;9.20;24.50;;;;;;4992599;28;20990;-68
2022/03/24 00:32:09;;;;;;;52.15;26.63;;;9.30;24.60;;;;;;4992692;28;20509;-68
2022/03/24 00:34:35;;;;;;;55.67;25.20;;;9.30;25.70;;;;;;4992726;28;20194;-69
2022/03/24 00:37:03;;;;;;;45.97;25.50;;;9.20;25.40;;;;;;4992671;28;20178;-70
2022/03/24 00:39:33;;;;;;;50.15;24.83;;;9.50;24.30;;;;;;4992550;28;20447;-68
2022/03/24 00:42:02;;;;;;;52.58;25.92;;;9.20;24.50;;;;;;4992315;28;20190;-68
2022/03/24 00:44:28;;;;;;;59.60;24.63;;;9.20;25.60;;;;;;4992369;28;20591;-68
2022/03/24 00:46:55;;;;;;;46.10;24.10;;;9.30;24.20;;;;;;4992665;28;20252;-68
2022/03/24 00:49:21;;;;;;;53.42;26.67;;;9.10;25.60;;;;;;4992229;28;20499;-68
2022/03/24 00:51:48;;;;;;;52.50;27.23;;;9.40;24.30;;;;;;4986993;28;20187;-68
2022/03/24 00:54:18;;;;;;;45.13;26.02;;;9.60;24.00;;;;;;4991541;28;20417;-68
2022/03/24 00:56:45;;;;;;;53.95;26.48;;;9.60;24.00;;;;;;4992538;28;20174;-71
2022/03/24 00:59:11;;;;;;;48.17;26.45;;;9.10;25.60;;;;;;4992631;28;20736;-68
2022/03/24 01:01:39;;;;;;;47.00;26.47;;;9.00;25.90;;;;;;4991687;28;20194;-68
2022/03/24 01:04:06;;;;;;;45.10;25.75;;;9.10;25.20;;;;;;4992087;28;20186;-68
2022/03/24 01:06:34;;;;;;;51.55;26.60;;;9.20;24.50;;;;;;4991830;28;20185;-69
2022/03/24 01:09:03;;;;;;;48.88;27.15;;;9.20;24.80;;;;;;4992107;28;20210;-68
2022/03/24 01:11:29;;;;;;;54.85;27.95;;;9.20;24.70;;;;;;4991700;28;20186;-68
2022/03/24 01:13:54;;;;;;;51.10;26.70;;;9.50;24.40;;;;;;4991921;28;20182;-68
2022/03/24 01:16:23;;;;;;;62.40;28.40;;;9.20;25.10;;;;;;4992171;28;20166;-71
2022/03/24 01:18:50;;;;;;;50.10;27.63;;;9.00;24.90;;;;;;4991462;28;20635;-68
2022/03/24 01:21:16;;;;;;;48.95;26.95;;;8.80;25.70;;;;;;4992106;28;20682;-69
2022/03/24 01:23:45;;;;;;;56.40;28.42;;;9.10;24.90;;;;;;4991743;28;20189;-68
2022/03/24 01:26:11;;;;;;;54.10;27.83;;;9.20;24.70;;;;;;5009271;28;20185;-71
2022/03/24 01:28:39;;;;;;;54.65;28.40;;;9.20;24.30;;;;;;5002410;28;20265;-68
2022/03/24 01:31:05;;;;;;;50.22;27.75;;;9.10;24.90;;;;;;4991533;28;20185;-70
2022/03/24 01:33:31;;;;;;;53.90;26.38;;;9.10;24.30;;;;;;4991931;28;20652;-68
2022/03/24 01:35:56;;;;;;;49.23;26.73;;;9.30;24.10;;;;;;4991358;28;20189;-71
2022/03/24 01:38:23;;;;;;;61.47;28.57;;;9.30;24.00;;;;;;4992106;28;20191;-68
2022/03/24 01:40:49;;;;;;;46.65;26.02;;;9.00;25.30;;;;;;4991081;28;20197;-71
2022/03/24 01:43:17;;;;;;;49.50;27.90;;;8.90;25.00;;;;;;4990398;28;20257;-70
2022/03/24 01:45:43;;;;;;;47.30;26.02;;;8.70;25.30;;;;;;4985130;28;20189;-69
2022/03/24 01:48:09;;;;;;;46.13;25.50;;;8.90;24.70;;;;;;4980746;28;20599;-69
2022/03/24 01:50:36;;;;;;;48.60;27.27;;;8.60;26.30;;;;;;4991705;28;20532;-70
2022/03/24 01:53:02;;;;;;;58.60;25.90;;;8.30;26.40;;;;;;4991397;28;20185;-69
2022/03/24 01:55:28;;;;;;;50.50;26.95;;;8.40;26.50;;;;;;4994430;28;20181;-67
2022/03/24 01:57:55;;;;;;;52.17;27.83;;;8.30;26.30;;;;;;4992922;28;20502;-68
2022/03/24 02:00:21;;;;;;;51.03;27.80;;;8.50;25.90;;;;;;4991574;28;20610;-68
2022/03/24 02:02:48;;;;;;;49.97;26.60;;;8.70;25.30;;;;;;4991799;28;20650;-71
2022/03/24 02:05:14;;;;;;;49.13;26.20;;;8.50;26.00;;;;;;4991060;28;20178;-68
2022/03/24 02:07:39;;;;;;;53.80;27.13;;;8.50;25.50;;;;;;4991075;28;20192;-69
2022/03/24 02:10:07;;;;;;;48.73;26.60;;;8.70;25.30;;;;;;4990047;28;20576;-71
2022/03/24 02:12:33;;;;;;;48.35;25.83;;;8.60;25.30;;;;;;4990079;28;20264;-68
2022/03/24 02:15:00;;;;;;;51.80;26.15;;;8.60;25.80;;;;;;4991269;28;20182;-68
2022/03/24 02:17:30;;;;;;;49.38;26.13;;;8.50;26.50;;;;;;4991081;28;20522;-68
2022/03/24 02:19:59;;;;;;;52.60;26.73;;;8.40;26.20;;;;;;4991266;28;20212;-68
2022/03/24 02:22:26;;;;;;;58.25;27.13;;;8.20;26.60;;;;;;4995047;28;20181;-69
2022/03/24 02:24:52;;;;;;;55.35;27.40;;;8.00;27.00;;;;;;4994040;28;20181;-69
2022/03/24 02:27:18;;;;;;;44.97;26.80;;;7.80;27.30;;;;;;5005046;28;20307;-71
2022/03/24 02:29:45;;;;;;;50.30;27.17;;;8.00;27.10;;;;;;4997587;28;20241;-68
2022/03/24 02:32:16;;;;;;;56.00;26.35;;;7.70;27.70;;;;;;4994934;28;20421;-68
2022/03/24 02:34:47;;;;;;;52.80;25.00;;;7.70;28.50;;;;;;4994802;28;20304;-68
2022/03/24 02:37:17;;;;;;;54.05;26.40;;;7.60;28.30;;;;;;4995057;28;20170;-68
2022/03/24 02:39:48;;;;;;;46.30;25.67;;;7.70;27.90;;;;;;4994944;28;20296;-68
2022/03/24 02:42:17;;;;;;;50.55;26.23;;;7.80;27.80;;;;;;4994935;28;20182;-71
2022/03/24 02:44:48;;;;;;;51.17;26.63;;;7.70;27.30;;;;;;4994859;28;20186;-69
2022/03/24 02:47:16;;;;;;;47.95;25.17;;;7.60;27.40;;;;;;4995129;28;20741;-71
2022/03/24 02:49:43;;;;;;;47.63;25.17;;;7.60;27.00;;;;;;4993411;28;20344;-68
2022/03/24 02:52:09;;;;;;;48.50;26.40;;;7.90;26.70;;;;;;4992679;28;20177;-71
2022/03/24 02:54:36;;;;;;;52.22;26.23;;;8.10;26.30;;;;;;4994014;28;20186;-68
2022/03/24 02:57:02;;;;;;;46.15;26.10;;;8.30;26.10;;;;;;4994766;28;20232;-68
2022/03/24 02:59:29;;;;;;;47.00;26.70;;;7.80;26.90;;;;;;5002781;28;20245;-68
2022/03/24 03:01:59;;;;;;;50.15;25.88;;;7.60;27.90;;;;;;4994360;28;20186;-67
2022/03/24 03:04:26;;;;;;;47.30;27.00;;;7.90;27.00;;;;;;4994418;28;20222;-68
2022/03/24 03:06:53;;;;;;;48.28;24.92;;;7.70;26.80;;;;;;4994723;28;20182;-68
2022/03/24 03:09:19;;;;;;;49.30;25.23;;;8.00;26.30;;;;;;4994281;28;20236;-69
2022/03/24 03:11:46;;;;;;;46.47;24.67;;;8.20;25.90;;;;;;4994545;28;20202;-68
2022/03/24 03:14:14;;;;;;;56.88;26.90;;;8.10;26.10;;;;;;4993894;28;20537;-68
2022/03/24 03:16:41;;;;;;;46.60;24.67;;;8.10;26.30;;;;;;4994204;28;20261;-70
2022/03/24 03:19:08;;;;;;;54.15;24.40;;;7.90;26.10;;;;;;4994784;28;20847;-68
2022/03/24 03:21:36;;;;;;;53.20;24.83;;;7.60;27.20;;;;;;4994113;28;20182;-68
2022/03/24 03:24:02;;;;;;;46.83;24.75;;;7.60;27.40;;;;;;4994191;28;20186;-69
2022/03/24 03:26:28;;;;;;;46.80;24.40;;;7.50;27.40;;;;;;4994253;28;20676;-68
2022/03/24 03:28:54;;;;;;;46.97;25.00;;;7.70;26.90;;;;;;4993855;28;20233;-68
2022/03/24 03:31:20;;;;;;;46.80;24.50;;;7.60;27.70;;;;;;5012728;28;20177;-68
2022/03/24 03:33:46;;;;;;;51.28;25.55;;;7.40;28.30;;;;;;5012384;28;20626;-68
2022/03/24 03:36:12;;;;;;;48.03;26.23;;;7.30;28.00;;;;;;4994612;28;20186;-69
2022/03/24 03:38:38;;;;;;;43.05;23.45;;;7.20;28.00;;;;;;4993675;28;20205;-68
2022/03/24 03:41:04;;;;;;;61.58;25.52;;;7.30;27.50;;;;;;4994109;28;20184;-68
2022/03/24 03:43:30;;;;;;;51.13;25.75;;;7.20;27.10;;;;;;4993685;28;20541;-69
2022/03/24 03:45:55;;;;;;;40.73;24.00;;;7.10;28.30;;;;;;4993716;28;20186;-71
2022/03/24 03:48:21;;;;;;;50.60;24.37;;;6.90;28.50;;;;;;4993456;28;20287;-68
2022/03/24 03:50:48;;;;;;;46.03;24.83;;;7.10;29.10;;;;;;4993706;28;20623;-68
2022/03/24 03:53:14;;;;;;;46.90;23.58;;;6.70;29.40;;;;;;4993744;28;20174;-71
2022/03/24 03:55:40;;;;;;;48.10;25.77;;;6.90;29.40;;;;;;4994189;28;20266;-70
2022/03/24 03:58:06;;;;;;;46.33;24.70;;;7.10;28.10;;;;;;4993323;28;20664;-71
2022/03/24 04:00:53;;;;;;;50.28;25.77;;;7.10;29.10;;;;;;5000865;28;20772;-70
2022/03/24 04:03:20;;;;;;;44.22;23.08;;;7.10;29.00;;;;;;5013157;28;20169;-68
2022/03/24 04:05:45;;;;;;;62.53;25.92;;;6.90;28.00;;;;;;5012703;28;20173;-67
2022/03/24 04:08:12;;;;;;;47.43;25.63;;;7.00;28.60;;;;;;4993429;28;20268;-68
2022/03/24 04:10:38;;;;;;;46.60;25.65;;;7.30;27.70;;;;;;4993472;28;20261;-68
2022/03/24 04:13:05;;;;;;;44.85;25.15;;;7.40;27.00;;;;;;4992800;28;20182;-68
2022/03/24 04:15:32;;;;;;;43.25;24.52;;;7.60;26.60;;;;;;4993467;28;20545;-70
2022/03/24 04:17:58;;;;;;;49.70;24.73;;;7.40;26.90;;;;;;4993323;28;20568;-68
2022/03/24 04:20:24;;;;;;;51.60;26.27;;;7.20;27.50;;;;;;4992650;28;20181;-68
2022/03/24 04:22:50;;;;;;;46.70;25.40;;;7.00;28.70;;;;;;4993227;28;20547;-72
2022/03/24 04:25:22;;;;;;;45.28;25.77;;;7.10;27.80;;;;;;4993242;28;20590;-68
2022/03/24 04:27:49;;;;;;;48.08;24.27;;;7.10;28.80;;;;;;4990515;28;20182;-69
2022/03/24 04:30:16;;;;;;;51.15;27.75;;;6.80;28.70;;;;;;4993193;28;20170;-71
2022/03/24 04:32:42;;;;;;;50.60;25.85;;;6.70;29.50;;;;;;5009100;28;20220;-68
2022/03/24 04:35:09;;;;;;;49.10;26.58;;;6.70;28.40;;;;;;5012765;28;20219;-68
2022/03/24 04:37:35;;;;;;;49.10;25.98;;;7.00;28.00;;;;;;4995655;28;20189;-69
2022/03/24 04:40:02;;;;;;;41.10;23.85;;;7.10;27.40;;;;;;4992618;28;20197;-68
2022/03/24 04:42:27;;;;;;;63.65;25.45;;;7.00;27.30;;;;;;4993222;28;20276;-68
2022/03/24 04:44:53;;;;;;;45.97;25.00;;;6.90;27.60;;;;;;4992611;28;20250;-69
2022/03/24 04:47:19;;;;;;;53.40;24.93;;;7.00;27.90;;;;;;4992689;28;20201;-67
2022/03/24 04:49:45;;;;;;;44.88;24.60;;;6.90;28.90;;;;;;4992497;28;20289;-71
2022/03/24 04:52:11;;;;;;;49.80;25.73;;;6.80;29.50;;;;;;4992453;28;20269;-68
2022/03/24 04:54:37;;;;;;;49.67;25.63;;;6.90;27.70;;;;;;4992677;28;20174;-69
2022/03/24 04:57:03;;;;;;;44.03;23.70;;;7.10;27.00;;;;;;4992730;28;20421;-68
2022/03/24 04:59:28;;;;;;;50.13;25.90;;;7.10;27.00;;;;;;4992367;28;20536;-68
2022/03/24 05:01:56;;;;;;;54.10;25.47;;;7.10;27.50;;;;;;4991886;28;20329;-68
2022/03/24 05:04:23;;;;;;;49.75;23.77;;;6.60;28.20;;;;;;4999889;28;20210;-68
2022/03/24 05:06:52;;;;;;;50.88;25.52;;;6.90;28.50;;;;;;4992670;28;20260;-68
2022/03/24 05:09:18;;;;;;;47.80;25.85;;;6.70;28.00;;;;;;4992550;28;20281;-70
2022/03/24 05:11:43;;;;;;;49.47;26.73;;;6.50;28.40;;;;;;4992153;28;20178;-68
2022/03/24 05:14:10;;;;;;;46.30;26.10;;;6.50;28.70;;;;;;4991677;28;20182;-68
2022/03/24 05:16:36;;;;;;;50.28;25.17;;;7.00;28.00;;;;;;4992470;28;20971;-67
2022/03/24 05:19:02;;;;;;;49.63;25.87;;;7.00;27.40;;;;;;4992319;28;20321;-68
2022/03/24 05:21:28;;;;;;;48.40;25.13;;;6.90;27.40;;;;;;4992300;28;20414;-68
2022/03/24 05:23:53;;;;;;;52.20;25.63;;;6.80;27.70;;;;;;4988987;28;20198;-68
2022/03/24 05:26:23;;;;;;;51.83;27.27;;;6.80;29.50;;;;;;4991457;28;20186;-68
2022/03/24 05:28:50;;;;;;;44.33;24.80;;;6.60;28.30;;;;;;4992136;28;21131;-68
2022/03/24 05:31:17;;;;;;;55.90;25.92;;;6.90;27.50;;;;;;4991933;28;20186;-69
2022/03/24 05:33:43;;;;;;;54.20;26.50;;;7.10;27.10;;;;;;4991221;28;20729;-68
2022/03/24 05:36:10;;;;;;;49.42;25.58;;;7.10;26.90;;;;;;5009622;28;20243;-68
2022/03/24 05:38:36;;;;;;;52.03;26.10;;;6.90;27.20;;;;;;5010948;28;20205;-68
2022/03/24 05:41:02;;;;;;;54.63;24.95;;;7.10;28.90;;;;;;4991272;28;20190;-70
2022/03/24 05:43:28;;;;;;;47.45;24.70;;;6.70;28.40;;;;;;4991326;28;20198;-68
2022/03/24 05:45:54;;;;;;;43.57;23.60;;;6.90;27.60;;;;;;4991721;28;20224;-67
2022/03/24 05:48:20;;;;;;;43.97;24.02;;;6.90;27.50;;;;;;5000003;28;20482;-68
2022/03/24 05:50:46;;;;;;;54.80;25.07;;;6.70;29.60;;;;;;5011606;28;20600;-68
2022/03/24 05:53:12;;;;;;;50.83;25.00;;;6.80;28.20;;;;;;4994193;28;20700;-68
2022/03/24 05:55:38;;;;;;;51.30;25.45;;;7.00;27.60;;;;;;4989233;28;20178;-68
2022/03/24 05:58:04;;;;;;;44.47;24.70;;;7.20;28.50;;;;;;4990693;28;20269;-67
2022/03/24 06:00:31;;;;;;;50.17;24.95;;;6.80;28.60;;;;;;4991592;28;20613;-67
2022/03/24 06:02:57;;;;;;;43.75;24.83;;;6.90;29.20;;;;;;4991740;28;20193;-67
2022/03/24 06:05:25;;;;;;;48.08;24.35;;;7.00;28.30;;;;;;4991581;28;20661;-71
2022/03/24 06:07:51;;;;;;;48.88;24.98;;;7.00;27.60;;;;;;4987570;28;20189;-68
2022/03/24 06:10:17;;;;;;;50.67;24.95;;;6.90;28.00;;;;;;4991822;28;20265;-68
2022/03/24 06:12:42;;;;;;;55.30;25.23;;;7.00;28.10;;;;;;4991338;28;20264;-68
2022/03/24 06:15:08;;;;;;;53.40;26.87;;;7.00;27.60;;;;;;4991196;28;20178;-68
2022/03/24 06:17:35;;;;;;;56.03;26.17;;;7.00;27.80;;;;;;4993864;28;20646;-68
2022/03/24 06:20:04;;;;;;;52.40;27.05;;;7.00;27.80;;;;;;4993118;28;20213;-68
2022/03/24 06:22:31;;;;;;;50.30;24.95;;;7.00;27.60;;;;;;4991444;28;20192;-71
2022/03/24 06:24:57;;;;;;;62.17;26.58;;;7.10;27.50;;;;;;4990766;28;20182;-68
2022/03/24 06:27:22;;;;;;;49.33;26.63;;;7.20;27.80;;;;;;4991440;28;20229;-68
2022/03/24 06:29:48;;;;;;;49.07;24.40;;;7.10;27.30;;;;;;4989942;28;20213;-68
2022/03/24 06:32:15;;;;;;;55.67;27.30;;;7.00;27.40;;;;;;4990973;28;20253;-70
2022/03/24 06:34:41;;;;;;;58.42;27.20;;;6.80;27.90;;;;;;4990525;28;20174;-68
2022/03/24 06:37:07;;;;;;;51.07;26.07;;;6.70;28.30;;;;;;4990647;28;20248;-68
2022/03/24 06:39:33;;;;;;;49.70;24.90;;;6.30;28.40;;;;;;4991023;28;20204;-68
2022/03/24 06:41:58;;;;;;;49.93;26.03;;;6.30;28.60;;;;;;4991091;28;20946;-69
2022/03/24 06:44:24;;;;;;;52.03;26.80;;;6.70;27.80;;;;;;4990748;28;20697;-67
2022/03/24 06:46:49;;;;;;;64.13;31.53;;;7.10;27.20;;;;;;4991374;28;20216;-68
2022/03/24 06:49:15;;;;;;;58.33;29.70;;;7.20;27.20;;;;;;4999224;28;20212;-73
2022/03/24 06:51:41;;;;;;;61.97;27.40;;;7.20;27.00;;;;;;4999165;28;20225;-79
2022/03/24 06:54:07;;;;;;;46.97;23.70;;;7.60;27.40;;;;;;4998841;28;20178;-80
2022/03/24 06:56:32;;;;;;;53.40;25.80;;;7.30;26.90;;;;;;4997227;28;20422;-80
2022/03/24 06:58:58;;;;;;;52.97;25.63;;;7.20;26.70;;;;;;4997256;28;20190;-80
2022/03/24 07:01:23;;;;;;;53.27;26.03;;;7.20;26.60;;;;;;5004033;28;20184;-80
2022/03/24 07:03:49;;;;;;;57.60;26.10;;;7.30;26.70;;;;;;4999845;28;20261;-79
2022/03/24 07:06:20;;;;;;;50.03;25.08;;;7.30;26.60;;;;;;5002622;28;20193;-80
2022/03/24 07:08:45;;;;;;;51.03;26.35;;;7.40;26.70;;;;;;4985868;28;20213;-68
2022/03/24 07:11:11;;;;;;;51.63;25.00;;;7.70;26.50;;;;;;4992784;28;20188;-69
2022/03/24 07:13:36;;;;;;;49.13;25.30;;;8.00;25.90;;;;;;4993839;28;20268;-69
2022/03/24 07:16:02;;;;;;;65.83;24.63;;;8.40;25.00;;;;;;4994322;28;20192;-69
2022/03/24 07:18:28;;;;;;;60.80;25.60;;;8.70;24.70;;;;;;4994471;28;20237;-69
2022/03/24 07:20:53;;;;;;;58.50;24.87;;;8.90;24.90;;;;;;4991564;28;20257;-69
2022/03/24 07:23:20;;;;;;;58.80;27.90;;;8.90;24.40;;;;;;4994272;28;20198;-71
2022/03/24 07:25:45;;;;;;;50.42;28.23;;;8.60;24.50;;;;;;4994773;28;20537;-71
2022/03/24 07:28:11;;;;;;;55.53;26.80;;;8.30;25.10;;;;;;4994312;28;20256;-71
2022/03/24 07:30:37;;;;;;;57.00;25.30;;;8.20;25.90;;;;;;4993090;28;20683;-70
2022/03/24 07:33:04;;;;;;;46.35;25.40;;;8.70;24.20;;;;;;4994199;28;20678;-71
2022/03/24 07:35:33;;;;;;;61.95;25.88;;;8.10;25.40;;;;;;4994483;28;20528;-71
2022/03/24 07:37:59;;;;;;;50.75;25.30;;;8.10;25.40;;;;;;4994078;28;21045;-71
2022/03/24 07:40:25;;;;;;;49.60;25.02;;;7.80;26.00;;;;;;4994414;28;20182;-71
2022/03/24 07:42:53;;;;;;;55.63;25.60;;;8.00;26.00;;;;;;4994018;28;20220;-71
2022/03/24 07:45:20;;;;;;;50.58;26.90;;;8.10;25.60;;;;;;4993979;28;20177;-71
2022/03/24 07:48:09;;;;;;;49.40;27.20;;;8.70;25.70;;;;;;4994079;28;20179;-70
2022/03/24 07:50:36;;;;;;;50.75;25.33;;;9.10;24.30;;;;;;4994180;28;20178;-70
2022/03/24 07:53:27;;;;;;;45.10;25.10;;;9.00;24.20;;;;;;4993552;28;20188;-74
2022/03/24 07:55:56;;;;;;;53.22;25.50;;;8.80;24.90;;;;;;4963432;28;20188;-70
2022/03/24 07:58:22;;;;;;;44.10;25.42;;;8.30;26.10;;;;;;4993034;28;20212;-70
2022/03/24 08:00:48;;;;;;;50.50;25.77;;;8.40;25.90;;;;;;4994087;28;20182;-68
2022/03/24 08:03:16;;;;;;;49.58;27.90;;;8.90;25.50;;;;;;4993338;28;20586;-74
2022/03/24 08:05:42;;;;;;;52.80;27.55;;;9.10;25.10;;;;;;4995070;28;20622;-71
2022/03/24 08:08:11;;;;;;;50.92;27.15;;;9.10;25.30;;;;;;5007931;28;20224;-71
2022/03/24 08:10:42;;;;;;;55.92;28.38;;;8.90;25.30;;;;;;4993329;28;20224;-71
2022/03/24 08:13:10;;;;;;;55.60;28.40;;;8.70;25.90;;;;;;4990528;28;20189;-71
2022/03/24 08:15:37;;;;;;;57.20;26.87;;;8.90;25.40;;;;;;4993779;28;20468;-71
2022/03/24 08:18:06;;;;;;;50.90;27.07;;;8.80;26.00;;;;;;4992895;28;20511;-71
2022/03/24 08:20:33;;;;;;;55.05;26.27;;;9.20;25.10;;;;;;4992072;28;21162;-71
2022/03/24 08:22:59;;;;;;;49.67;26.88;;;9.50;24.60;;;;;;4993476;28;20280;-72
2022/03/24 08:25:26;;;;;;;49.00;27.00;;;9.60;24.70;;;;;;4993142;28;20174;-72
2022/03/24 08:27:51;;;;;;;50.83;26.50;;;10.20;23.10;;;;;;4993229;28;20417;-71
2022/03/24 08:30:17;;;;;;;51.90;27.07;;;9.60;24.90;;;;;;4984374;28;20440;-71
2022/03/24 08:32:43;;;;;;;51.90;26.87;;;9.70;24.80;;;;;;4992595;28;20178;-72
2022/03/24 08:35:09;;;;;;;77.90;28.07;;;10.40;23.20;;;;;;4991280;28;20178;-72
2022/03/24 08:37:35;;;;;;;70.40;28.50;;;10.90;22.20;;;;;;4993093;28;20421;-72
2022/03/24 08:40:03;;;;;;;55.53;30.20;;;10.70;22.20;;;;;;4992700;28;21051;-71
2022/03/24 08:42:29;;;;;;;53.30;28.47;;;10.60;22.50;;;;;;4993219;28;20784;-72
2022/03/24 08:44:55;;;;;;;49.00;28.07;;;10.60;22.90;;;;;;4992915;28;20423;-71
2022/03/24 08:47:20;;;;;;;51.30;29.47;;;10.60;23.00;;;;;;4993049;28;20185;-71
2022/03/24 08:49:46;;;;;;;51.47;28.40;;;11.60;21.80;;;;;;4993160;28;20197;-71
2022/03/24 08:52:12;;;;;;;53.53;28.43;;;12.20;21.10;;;;;;4992505;28;20262;-72
2022/03/24 08:54:38;;;;;;;53.27;29.30;;;12.70;20.10;;;;;;4992872;28;20559;-72
2022/03/24 08:57:04;;;;;;;58.07;28.90;;;13.40;19.30;;;;;;4992363;28;20429;-72
2022/03/24 08:59:30;;;;;;;69.73;29.87;;;13.70;18.90;;;;;;4992786;28;20209;-72
2022/03/24 09:01:57;;;;;;;48.77;28.17;;;13.90;18.70;;;;;;4992858;28;20409;-72
2022/03/24 09:04:26;;;;;;;54.87;30.57;;;13.90;18.40;;;;;;4992692;28;20414;-72
2022/03/24 09:06:52;;;;;;;59.33;28.30;;;14.10;18.20;;;;;;4992272;28;20474;-72
2022/03/24 09:09:20;;;;;;;48.97;28.40;;;13.20;18.90;;;;;;4992387;28;20455;-72
2022/03/24 09:11:45;;;;;;;48.70;28.00;;;13.00;19.40;;;;;;4992844;28;21208;-71
2022/03/24 09:14:11;;;;;;;52.37;28.20;;;13.10;19.20;;;;;;4992466;28;20556;-71
2022/03/24 09:16:37;;;;;;;44.77;26.23;;;13.10;19.00;;;;;;4992868;28;20587;-72
2022/03/24 09:19:02;;;;;;;49.73;28.60;;;13.40;18.50;;;;;;4991688;28;20604;-72
2022/03/24 09:21:28;;;;;;;51.53;28.40;;;14.30;17.40;;;;;;4992600;28;20263;-72
2022/03/24 09:23:54;;;;;;;47.53;27.10;;;14.00;17.30;;;;;;4992210;28;20175;-73
2022/03/24 09:26:20;;;;;;;62.20;28.00;;;13.60;17.80;;;;;;4992642;28;20172;-72
2022/03/24 09:28:47;;;;;;;76.73;29.70;;;14.40;17.00;;;;;;4991897;28;20199;-71
2022/03/24 09:31:13;;;;;;;57.10;30.27;;;14.80;17.20;;;;;;4990434;28;20266;-72
2022/03/24 09:33:39;;;;;;;50.33;28.70;;;14.10;18.00;;;;;;4992169;28;20425;-72
2022/03/24 09:36:05;;;;;;;47.77;29.50;;;13.70;18.70;;;;;;4990813;28;20619;-73
2022/03/24 09:38:31;;;;;;;54.13;28.93;;;13.80;18.60;;;;;;4992122;28;20551;-72
2022/03/24 09:40:57;;;;;;;63.73;29.33;;;14.70;17.40;;;;;;4991562;28;20456;-72
2022/03/24 09:43:22;;;;;;;45.50;27.50;;;14.50;17.80;;;;;;4991664;28;20186;-73
2022/03/24 09:45:48;;;;;;;55.10;30.33;;;15.00;17.30;;;;;;4992317;28;20260;-72
2022/03/24 09:48:15;;;;;;;53.73;29.37;;;15.20;16.30;;;;;;4991902;28;20237;-72
2022/03/24 09:50:44;;;;;;;54.60;31.50;;;15.20;15.80;;;;;;4991634;28;20484;-73
2022/03/24 09:53:10;;;;;;;54.53;30.40;;;14.70;15.90;;;;;;4992003;28;20432;-72
2022/03/24 09:55:37;;;;;;;62.60;30.33;;;15.30;15.30;;;;;;4992171;28;20957;-72
2022/03/24 09:58:06;;;;;;;51.20;28.23;;;15.40;15.30;;;;;;4991993;28;20445;-72
2022/03/24 10:00:32;;;;;;;51.60;28.30;;;15.30;15.30;;;;;;4992022;28;20506;-72
2022/03/24 10:03:10;;;;;;;65.47;29.40;;;15.30;15.80;;;;;;4991105;28;20438;-72
2022/03/24 10:05:36;;;;;;;49.40;29.80;;;15.30;15.50;;;;;;4991901;28;20424;-72
2022/03/24 10:08:06;;;;;;;56.57;30.27;;;15.40;15.90;;;;;;4992593;28;20406;-71
2022/03/24 10:10:34;;;;;;;57.20;31.10;;;15.60;15.20;;;;;;4992570;28;20413;-73
2022/03/24 10:13:01;;;;;;;53.03;31.17;;;15.60;14.90;;;;;;4991288;28;20434;-72
2022/03/24 10:15:28;;;;;;;53.37;30.73;;;16.50;14.20;;;;;;4991477;28;20443;-72
2022/03/24 10:17:57;;;;;;;54.60;31.30;;;17.30;13.90;;;;;;4991636;28;20416;-72
2022/03/24 10:20:27;;;;;;;54.17;30.20;;;17.10;13.60;;;;;;4991698;28;20413;-72
2022/03/24 10:22:55;;;;;;;59.93;29.70;;;16.90;13.60;;;;;;4991559;28;20475;-72
2022/03/24 10:25:33;;;;;;;52.17;30.60;;;17.90;12.00;;;;;;4991470;28;20984;-72
2022/03/24 10:28:14;;;;;;;57.13;28.67;;;17.70;11.80;;;;;;4991772;28;20413;-73
2022/03/24 10:30:46;;;;;;;56.20;29.50;;;18.20;11.60;;;;;;4991867;28;20945;-72
2022/03/24 10:33:25;;;;;;;47.70;29.03;;;17.50;11.50;;;;;;4990078;28;20473;-73
2022/03/24 10:36:02;;;;;;;69.93;28.33;;;18.80;11.40;;;;;;4991246;28;20930;-73
2022/03/24 10:38:32;;;;;;;51.93;27.53;;;19.00;12.00;;;;;;4991405;28;20461;-73
2022/03/24 10:41:30;;;;;;;50.43;25.73;;;19.50;10.00;;;;;;4991642;28;20494;-72
2022/03/24 10:44:04;;;;;;;49.07;27.30;;;18.90;11.10;;;;;;4995236;28;20851;-73
2022/03/24 10:46:32;;;;;;;47.23;25.03;;;19.80;9.60;;;;;;4995391;28;20951;-73
2022/03/24 10:49:13;;;;;;;44.03;25.13;;;19.70;9.70;;;;;;4995139;28;20441;-72
2022/03/24 10:51:43;;;;;;;42.70;25.23;;;19.80;9.40;;;;;;4995442;28;20399;-73
2022/03/24 10:54:18;;;;;;;45.60;25.70;;;20.30;9.30;;;;;;4995135;28;20420;-73
2022/03/24 10:56:52;;;;;;;47.53;25.20;;;20.90;9.10;;;;;;4994969;28;21032;-73
2022/03/24 10:59:18;;;;;;;40.30;24.53;;;21.20;7.00;;;;;;4994800;28;20803;-72
2022/03/24 11:01:45;;;;;;;45.93;24.17;;;20.80;8.50;;;;;;4995336;28;20425;-73
2022/03/24 11:04:10;;;;;;;42.10;24.30;;;21.70;7.10;;;;;;4994853;28;20275;-74
2022/03/24 11:06:46;;;;;;;39.10;23.30;;;23.20;7.40;;;;;;4994907;28;20964;-73
2022/03/24 11:09:21;;;;;;;40.20;24.53;;;23.40;6.20;;;;;;4995308;28;20593;-72
2022/03/24 11:11:46;;;;;;;33.63;22.13;;;23.90;5.30;;;;;;4995017;28;21198;-73
2022/03/24 11:14:13;;;;;;;44.80;23.50;;;23.80;5.50;;;;;;4994356;28;20428;-72
2022/03/24 11:16:40;;;;;;;34.80;22.63;;;23.10;6.40;;;;;;4993589;28;20309;-74
2022/03/24 11:19:18;;;;;;;36.33;20.90;;;24.20;5.20;;;;;;4994292;28;20475;-73
2022/03/24 11:21:51;;;;;;;42.97;24.40;;;24.30;5.90;;;;;;4994996;28;20425;-73
2022/03/24 11:24:16;;;;;;;40.03;23.57;;;25.30;5.00;;;;;;4992832;28;20462;-73
2022/03/24 11:26:43;;;;;;;47.90;23.10;;;25.90;5.50;;;;;;4994883;28;20884;-73
2022/03/24 11:29:10;;;;;;;37.30;24.73;;;25.70;3.40;;;;;;4993966;28;20636;-73
2022/03/24 11:31:36;;;;;;;39.40;24.00;;;26.90;3.40;;;;;;4994679;28;20511;-73
2022/03/24 11:34:04;;;;;;;35.03;22.23;;;27.20;2.60;;;;;;4994101;28;20860;-73
2022/03/24 11:36:31;;;;;;;35.27;22.77;;;27.60;2.80;;;;;;4993340;28;20192;-73
2022/03/24 11:39:04;;;;;;;45.53;22.60;;;28.50;1.60;;;;;;4994038;28;20968;-73
2022/03/24 11:41:38;;;;;;;33.97;22.70;;;26.20;3.80;;;;;;4994266;28;20508;-72
2022/03/24 11:44:25;;;;;;;31.57;21.63;;;27.00;1.80;;;;;;4994139;28;20780;-71
2022/03/24 11:46:55;;;;;;;35.07;22.50;;;27.70;2.00;;;;;;4994448;28;20451;-71
2022/03/24 11:49:26;;;;;;;41.10;23.40;;;26.20;2.90;;;;;;4994090;28;20498;-71
2022/03/24 11:51:58;;;;;;;31.30;21.43;;;26.80;2.80;;;;;;4993860;28;20429;-72
2022/03/24 11:54:33;;;;;;;29.60;21.63;;;27.20;1.70;;;;;;4992916;28;20409;-71
2022/03/24 11:57:28;;;;;;;33.17;22.13;;;26.70;1.70;;;;;;4994203;28;20432;-70
2022/03/24 12:00:26;;;;;;;36.93;21.17;;;25.70;1.10;;;;;;4993903;28;21004;-74
2022/03/24 12:02:51;;;;;;;32.50;20.33;;;25.20;2.10;;;;;;4971763;28;20449;-73
2022/03/24 12:05:17;;;;;;;30.57;20.63;;;25.90;3.20;;;;;;4971659;28;20778;-72
2022/03/24 12:07:43;;;;;;;31.10;21.10;;;28.20;1.00;;;;;;4971301;28;20642;-71
2022/03/24 12:10:14;;;;;;;33.00;21.10;;;29.80;1.00;;;;;;4971969;28;20460;-72
2022/03/24 12:13:24;;;;;;;35.23;21.53;;;30.60;1.00;;;;;;4972046;28;20933;-72
2022/03/24 12:16:18;;;;;;;34.50;21.57;;;29.40;1.30;;;;;;4972004;28;20449;-72
2022/03/24 12:18:44;;;;;;;33.10;20.17;;;25.80;3.60;;;;;;4969800;28;20477;-72
2022/03/24 12:21:22;;;;;;;33.70;20.97;;;26.60;2.30;;;;;;4971926;28;20725;-72
2022/03/24 12:24:17;;;;;;;31.47;22.13;;;26.30;2.10;;;;;;4971736;28;20178;-72
2022/03/24 12:26:56;;;;;;;32.70;21.67;;;27.50;1.00;;;;;;4971738;28;20552;-73
2022/03/24 12:29:23;;;;;;;30.03;20.73;;;27.10;2.50;;;;;;4969823;28;20528;-73
2022/03/24 12:32:05;;;;;;;30.43;20.67;;;28.80;1.00;;;;;;4971606;28;20430;-73
2022/03/24 12:34:40;;;;;;;24.83;18.43;;;30.40;1.00;;;;;;4971271;28;20417;-73
2022/03/24 12:37:07;;;;;;;29.13;20.30;;;30.00;1.00;;;;;;4971559;28;20517;-73
2022/03/24 12:39:38;;;;;;;35.20;20.87;;;29.00;1.00;;;;;;4977679;28;20471;-73